TimeCST,TemperatureF,Dew PointF,Humidity,Sea Level PressureIn,VisibilityMPH,Wind Direction,Wind SpeedMPH,Gust SpeedMPH,PrecipitationIn,Events,Conditions,WindDirDegrees,DateUTC
12:13 AM,21.2,17.6,86,29.96,7.0,SE,8.1,-,N/A,,Clear,130,2012-12-12 06:13:00
12:33 AM,23.0,17.6,80,29.96,7.0,SE,8.1,-,N/A,,Clear,130,2012-12-12 06:33:00
12:53 AM,23.0,17.6,80,29.96,7.0,SE,6.9,-,N/A,,Clear,130,2012-12-12 06:53:00
1:13 AM,23.0,17.6,80,29.96,7.0,SE,6.9,-,N/A,,Clear,130,2012-12-12 07:13:00
1:33 AM,21.2,17.6,86,29.96,7.0,ESE,6.9,-,N/A,,Clear,120,2012-12-12 07:33:00
1:53 AM,23.0,17.6,80,29.96,7.0,SE,9.2,-,N/A,,Clear,130,2012-12-12 07:53:00
2:14 AM,24.8,17.6,74,29.96,10.0,SE,11.5,-,N/A,,Clear,130,2012-12-12 08:14:00
2:33 AM,24.8,17.6,74,29.95,10.0,SE,10.4,-,N/A,,Clear,130,2012-12-12 08:33:00
2:53 AM,24.8,17.6,74,29.95,10.0,SE,11.5,-,N/A,,Clear,130,2012-12-12 08:53:00
3:14 AM,24.8,17.6,74,29.94,10.0,SE,10.4,-,N/A,,Clear,130,2012-12-12 09:14:00
3:53 AM,24.8,17.6,74,29.93,10.0,SE,13.8,-,N/A,,Clear,130,2012-12-12 09:53:00
4:13 AM,24.8,17.6,74,29.92,10.0,SE,13.8,-,N/A,,Clear,140,2012-12-12 10:13:00
4:34 AM,26.6,17.6,69,29.91,10.0,SE,12.7,-,N/A,,Clear,130,2012-12-12 10:34:00
4:54 AM,26.6,17.6,69,29.91,10.0,SE,12.7,-,N/A,,Clear,140,2012-12-12 10:54:00
5:13 AM,28.4,19.4,69,29.90,10.0,SE,13.8,-,N/A,,Clear,140,2012-12-12 11:13:00
5:53 AM,28.4,17.6,64,29.90,10.0,SSE,16.1,24.2,N/A,,Scattered Clouds,150,2012-12-12 11:53:00
6:13 AM,30.2,17.6,60,29.91,10.0,SSE,15.0,23.0,N/A,,Scattered Clouds,160,2012-12-12 12:13:00
6:33 AM,30.2,17.6,60,29.90,10.0,SSE,16.1,-,N/A,,Mostly Cloudy,160,2012-12-12 12:33:00
6:53 AM,30.2,17.6,60,29.90,10.0,SSE,18.4,-,N/A,,Overcast,160,2012-12-12 12:53:00
7:13 AM,30.2,19.4,64,29.89,10.0,SSE,17.3,24.2,N/A,,Overcast,160,2012-12-12 13:13:00
7:33 AM,30.2,19.4,64,29.89,10.0,SSE,20.7,-,N/A,,Overcast,160,2012-12-12 13:33:00
7:53 AM,32.0,19.4,60,29.88,10.0,SSE,19.6,25.3,N/A,,Overcast,160,2012-12-12 13:53:00
8:13 AM,32.0,19.4,60,29.88,10.0,SSE,19.6,26.5,N/A,,Overcast,160,2012-12-12 14:13:00
8:33 AM,33.8,19.4,56,29.89,10.0,SSE,19.6,-,N/A,,Mostly Cloudy,160,2012-12-12 14:33:00
8:53 AM,33.8,19.4,56,29.89,10.0,SSE,15.0,23.0,N/A,,Overcast,160,2012-12-12 14:53:00
9:14 AM,33.8,21.2,60,29.90,10.0,South,15.0,21.9,N/A,,Overcast,170,2012-12-12 15:14:00
9:33 AM,35.6,19.4,52,29.90,10.0,South,17.3,-,N/A,,Overcast,170,2012-12-12 15:33:00
9:54 AM,37.4,21.2,52,29.90,10.0,SSE,16.1,-,N/A,,Mostly Cloudy,160,2012-12-12 15:54:00
10:13 AM,37.4,19.4,48,29.90,10.0,South,15.0,21.9,N/A,,Mostly Cloudy,170,2012-12-12 16:13:00
10:34 AM,37.4,19.4,48,29.89,10.0,SSE,16.1,21.9,N/A,,Mostly Cloudy,160,2012-12-12 16:34:00
10:54 AM,39.2,19.4,45,29.88,10.0,SSE,19.6,25.3,N/A,,Scattered Clouds,160,2012-12-12 16:54:00
11:14 AM,39.2,19.4,45,29.88,10.0,SSE,16.1,23.0,N/A,,Clear,160,2012-12-12 17:14:00
11:33 AM,39.2,19.4,45,29.87,10.0,South,16.1,-,N/A,,Clear,170,2012-12-12 17:33:00
11:54 AM,39.2,21.2,49,29.87,10.0,SSE,13.8,24.2,N/A,,Clear,160,2012-12-12 17:54:00
12:14 PM,41.0,21.2,45,29.86,10.0,SSE,16.1,25.3,N/A,,Clear,160,2012-12-12 18:14:00
12:34 PM,42.8,19.4,39,29.85,10.0,South,18.4,23.0,N/A,,Clear,170,2012-12-12 18:34:00
12:54 PM,42.8,19.4,39,29.85,10.0,South,19.6,26.5,N/A,,Clear,170,2012-12-12 18:54:00
1:14 PM,42.8,19.4,39,29.84,10.0,South,19.6,29.9,N/A,,Clear,170,2012-12-12 19:14:00
1:34 PM,42.8,19.4,39,29.83,10.0,South,23.0,28.8,N/A,,Clear,170,2012-12-12 19:34:00
1:53 PM,44.6,19.4,37,29.83,10.0,South,19.6,25.3,N/A,,Clear,170,2012-12-12 19:53:00
2:14 PM,44.6,19.4,37,29.82,10.0,South,20.7,27.6,N/A,,Clear,170,2012-12-12 20:14:00
2:34 PM,44.6,21.2,39,29.82,10.0,South,19.6,25.3,N/A,,Clear,170,2012-12-12 20:34:00
2:53 PM,44.6,21.2,39,29.83,10.0,South,18.4,-,N/A,,Clear,170,2012-12-12 20:53:00
3:13 PM,44.6,21.2,39,29.83,10.0,South,18.4,-,N/A,,Clear,170,2012-12-12 21:13:00
3:33 PM,44.6,21.2,39,29.83,10.0,South,19.6,24.2,N/A,,Clear,170,2012-12-12 21:33:00
3:53 PM,44.6,21.2,39,29.84,10.0,South,18.4,-,N/A,,Clear,180,2012-12-12 21:53:00
4:14 PM,44.6,21.2,39,29.84,10.0,South,17.3,-,N/A,,Clear,170,2012-12-12 22:14:00
4:34 PM,44.6,21.2,39,29.84,10.0,South,16.1,-,N/A,,Clear,170,2012-12-12 22:34:00
4:53 PM,44.6,21.2,39,29.85,10.0,South,15.0,-,N/A,,Clear,180,2012-12-12 22:53:00
5:13 PM,44.6,21.2,39,29.86,10.0,South,15.0,-,N/A,,Clear,170,2012-12-12 23:13:00
5:33 PM,44.6,21.2,39,29.86,10.0,South,13.8,-,N/A,,Clear,170,2012-12-12 23:33:00
5:54 PM,44.6,21.2,39,29.87,10.0,South,13.8,-,N/A,,Clear,170,2012-12-12 23:54:00
6:33 PM,42.8,21.2,42,29.88,10.0,South,11.5,-,N/A,,Scattered Clouds,170,2012-12-13 00:33:00
6:54 PM,42.8,21.2,42,29.89,10.0,South,12.7,-,N/A,,Clear,170,2012-12-13 00:54:00
7:13 PM,42.8,21.2,42,29.89,10.0,South,13.8,-,N/A,,Clear,170,2012-12-13 01:13:00
7:33 PM,42.8,21.2,42,29.90,10.0,South,13.8,-,N/A,,Clear,170,2012-12-13 01:33:00
7:53 PM,42.8,21.2,42,29.90,10.0,South,15.0,19.6,N/A,,Clear,170,2012-12-13 01:53:00
8:13 PM,41.0,21.2,45,29.91,10.0,South,16.1,21.9,N/A,,Clear,170,2012-12-13 02:13:00
8:34 PM,41.0,19.4,42,29.91,10.0,South,17.3,-,N/A,,Clear,170,2012-12-13 02:34:00
8:54 PM,41.0,19.4,42,29.92,10.0,South,15.0,19.6,N/A,,Clear,170,2012-12-13 02:54:00
9:13 PM,39.2,19.4,45,29.92,10.0,South,12.7,-,N/A,,Clear,170,2012-12-13 03:13:00
9:33 PM,39.2,17.6,42,29.92,10.0,South,16.1,-,N/A,,Clear,170,2012-12-13 03:33:00
9:54 PM,39.2,17.6,42,29.93,10.0,South,16.1,-,N/A,,Clear,170,2012-12-13 03:54:00
10:14 PM,39.2,17.6,42,29.93,10.0,South,15.0,20.7,N/A,,Clear,170,2012-12-13 04:14:00
10:54 PM,39.2,15.8,39,29.94,10.0,South,15.0,19.6,N/A,,Clear,170,2012-12-13 04:54:00
11:13 PM,39.2,15.8,39,29.94,10.0,South,13.8,20.7,N/A,,Clear,170,2012-12-13 05:13:00
11:34 PM,39.2,15.8,39,29.94,10.0,South,17.3,23.0,N/A,,Clear,180,2012-12-13 05:34:00
11:54 PM,39.2,15.8,39,29.94,10.0,South,19.6,24.2,N/A,,Clear,180,2012-12-13 05:54:00